Карточка аэропорта UUMO

Внимание!
Информация на этой странице в стадии наполнения.
Если вы не увидели какой-то информации, или заметили неточность - пожалуйста сообщите нам!
Спасибо!
Команда RU-STAFF
Название аэропортаОстафьево
Название аэропорта (англ.)Ostafyevo
Превышение564 ft. (171.9 m.)
Координаты55°30.45', 37°30.252'
Высота переходаBy ATC
Эшелон переходаBy ATC
Коды ответчика2701-2737
Зона ОрВДМосква РПИ (UUWV)
Данные METARUUMO 070630Z 15004MPS 110V200 CAVOK M10/M13 Q1027 R07/CLRD60 NOSIG RMK QFE756/1008
Проноз погоды (TAF)
NOTAMshow/hide NOTAM
AWOS   TABLE

Информация о ВПП

ВПП Длина ВПП (м.) Покрытие Курс ВПП Частота ILS
082050Железобетон75 
262050Железобетон255108.3

Диспетчерские позиции




Спутниковое изображение